sensor_id;sensor_type;location;lat;lon;timestamp;pressure;altitude;pressure_sealevel;temperature;humidity
76847;BME280;65813;49.546;8.644;2024-02-16T04:45:19;100417.66;;;10.20;97.26
76847;BME280;65813;49.546;8.644;2024-02-16T04:49:23;100409.16;;;10.02;97.39
76847;BME280;65813;49.546;8.644;2024-02-16T04:53:24;100391.94;;;9.82;98.44
76847;BME280;65813;49.546;8.644;2024-02-16T04:57:25;100409.47;;;9.97;99.05
76847;BME280;65813;49.546;8.644;2024-02-16T05:01:26;100391.91;;;9.95;98.58
76847;BME280;65813;49.546;8.644;2024-02-16T05:05:28;100389.78;;;9.87;99.56
76847;BME280;65813;49.546;8.644;2024-02-16T05:09:32;100392.22;;;10.16;97.33
76847;BME280;65813;49.546;8.644;2024-02-16T05:13:32;100404.13;;;9.97;98.78
76847;BME280;65813;49.546;8.644;2024-02-16T05:17:33;100386.63;;;9.82;98.63
76847;BME280;65813;49.546;8.644;2024-02-16T05:21:35;100396.91;;;9.87;98.26
76847;BME280;65813;49.546;8.644;2024-02-16T05:25:36;100393.19;;;9.77;99.37
76847;BME280;65813;49.546;8.644;2024-02-16T05:29:37;100381.41;;;9.68;98.21
76847;BME280;65813;49.546;8.644;2024-02-16T05:33:39;100398.84;;;9.72;99.00
76847;BME280;65813;49.546;8.644;2024-02-16T05:37:42;100391.88;;;10.07;90.95
76847;BME280;65813;49.546;8.644;2024-02-16T05:41:46;100391.88;;;10.33;87.86
76847;BME280;65813;49.546;8.644;2024-02-16T05:45:46;100402.47;;;10.69;84.11
76847;BME280;65813;49.546;8.644;2024-02-16T05:49:46;100407.03;;;10.80;84.20
76847;BME280;65813;49.546;8.644;2024-02-16T05:53:49;100407.09;;;10.91;82.02
76847;BME280;65813;49.546;8.644;2024-02-16T05:57:52;100407.94;;;10.91;81.46
76847;BME280;65813;49.546;8.644;2024-02-16T06:01:52;100420.56;;;11.00;80.36
76847;BME280;65813;49.546;8.644;2024-02-16T06:05:52;100416.91;;;10.90;82.88
76847;BME280;65813;49.546;8.644;2024-02-16T06:09:57;100418.44;;;11.05;80.44
76847;BME280;65813;49.546;8.644;2024-02-16T06:14:01;100402.19;;;11.08;79.11
76847;BME280;65813;49.546;8.644;2024-02-16T06:18:02;100398.44;;;11.11;78.81
76847;BME280;65813;49.546;8.644;2024-02-16T06:22:06;100410.97;;;11.22;78.26
76847;BME280;65813;49.546;8.644;2024-02-16T06:26:09;100411.97;;;11.32;77.45
76847;BME280;65813;49.546;8.644;2024-02-16T06:30:09;100421.22;;;11.39;77.59
76847;BME280;65813;49.546;8.644;2024-02-16T06:34:16;100420.91;;;11.20;79.80
76847;BME280;65813;49.546;8.644;2024-02-16T06:38:16;100436.00;;;11.43;77.08
76847;BME280;65813;49.546;8.644;2024-02-16T06:42:17;100447.16;;;11.83;75.76
76847;BME280;65813;49.546;8.644;2024-02-16T06:46:17;100434.38;;;11.64;76.81
76847;BME280;65813;49.546;8.644;2024-02-16T06:50:17;100462.56;;;11.79;76.50
76847;BME280;65813;49.546;8.644;2024-02-16T06:54:18;100457.63;;;11.97;75.11
76847;BME280;65813;49.546;8.644;2024-02-16T06:58:21;100457.50;;;11.98;75.35
76847;BME280;65813;49.546;8.644;2024-02-16T07:02:22;100464.06;;;12.05;74.68
76847;BME280;65813;49.546;8.644;2024-02-16T07:06:28;100461.16;;;11.97;75.60
76847;BME280;65813;49.546;8.644;2024-02-16T07:10:29;100441.44;;;11.76;75.95
76847;BME280;65813;49.546;8.644;2024-02-16T07:14:29;100476.91;;;12.00;75.63
76847;BME280;65813;49.546;8.644;2024-02-16T07:18:30;100483.97;;;12.01;75.64
76847;BME280;65813;49.546;8.644;2024-02-16T07:22:33;100489.44;;;12.11;75.45
76847;BME280;65813;49.546;8.644;2024-02-16T07:26:34;100482.28;;;12.11;75.44
76847;BME280;65813;49.546;8.644;2024-02-16T07:30:35;100488.00;;;12.29;74.91
76847;BME280;65813;49.546;8.644;2024-02-16T07:34:38;100511.94;;;12.31;75.45
76847;BME280;65813;49.546;8.644;2024-02-16T07:38:38;100521.50;;;12.22;76.59
76847;BME280;65813;49.546;8.644;2024-02-16T07:42:39;100515.69;;;12.28;75.26
76847;BME280;65813;49.546;8.644;2024-02-16T07:46:45;100505.00;;;12.28;74.54
76847;BME280;65813;49.546;8.644;2024-02-16T07:50:48;100500.75;;;12.26;74.36
76847;BME280;65813;49.546;8.644;2024-02-16T07:54:48;100526.75;;;12.24;74.23
76847;BME280;65813;49.546;8.644;2024-02-16T07:58:48;100529.03;;;12.06;76.15
76847;BME280;65813;49.546;8.644;2024-02-16T08:02:49;100527.56;;;12.24;75.05
76847;BME280;65813;49.546;8.644;2024-02-16T08:06:49;100529.53;;;12.22;75.75
76847;BME280;65813;49.546;8.644;2024-02-16T08:10:49;100526.59;;;12.14;75.94
76847;BME280;65813;49.546;8.644;2024-02-16T08:14:50;100525.88;;;12.23;75.21
76847;BME280;65813;49.546;8.644;2024-02-16T08:18:51;100527.13;;;12.30;75.07
76847;BME280;65813;49.546;8.644;2024-02-16T08:22:52;100528.78;;;12.31;74.93
76847;BME280;65813;49.546;8.644;2024-02-16T08:26:53;100526.50;;;12.27;74.65
76847;BME280;65813;49.546;8.644;2024-02-16T08:30:54;100528.78;;;12.31;74.94
76847;BME280;65813;49.546;8.644;2024-02-16T08:34:55;100540.34;;;12.32;75.49
76847;BME280;65813;49.546;8.644;2024-02-16T08:38:56;100546.19;;;12.48;74.57
76847;BME280;65813;49.546;8.644;2024-02-16T08:42:56;100550.44;;;12.50;74.48
76847;BME280;65813;49.546;8.644;2024-02-16T08:46:58;100544.34;;;12.48;73.98
76847;BME280;65813;49.546;8.644;2024-02-16T08:50:59;100538.03;;;12.49;73.88
76847;BME280;65813;49.546;8.644;2024-02-16T08:54:59;100535.13;;;12.63;73.69
76847;BME280;65813;49.546;8.644;2024-02-16T08:58:59;100513.13;;;12.60;73.40
76847;BME280;65813;49.546;8.644;2024-02-16T09:03:00;100507.44;;;12.64;72.59
76847;BME280;65813;49.546;8.644;2024-02-16T09:07:06;100547.03;;;12.93;72.58
76847;BME280;65813;49.546;8.644;2024-02-16T09:11:06;100545.81;;;12.86;73.36
76847;BME280;65813;49.546;8.644;2024-02-16T09:15:07;100534.38;;;12.73;74.10
76847;BME280;65813;49.546;8.644;2024-02-16T09:19:09;100548.09;;;12.90;73.05
76847;BME280;65813;49.546;8.644;2024-02-16T09:23:09;100563.66;;;12.96;72.71
76847;BME280;65813;49.546;8.644;2024-02-16T09:27:10;100550.06;;;12.88;73.28
76847;BME280;65813;49.546;8.644;2024-02-16T09:31:15;100543.72;;;13.00;72.64
76847;BME280;65813;49.546;8.644;2024-02-16T09:35:15;100570.84;;;12.96;73.84
76847;BME280;65813;49.546;8.644;2024-02-16T09:39:16;100536.59;;;12.79;73.33
76847;BME280;65813;49.546;8.644;2024-02-16T09:43:27;100587.50;;;13.10;73.55
76847;BME280;65813;49.546;8.644;2024-02-16T09:47:29;100580.28;;;13.00;72.90
76847;BME280;65813;49.546;8.644;2024-02-16T09:51:36;100566.31;;;12.96;73.17
76847;BME280;65813;49.546;8.644;2024-02-16T09:55:37;100580.47;;;13.09;73.12
76847;BME280;65813;49.546;8.644;2024-02-16T09:59:39;100589.69;;;13.17;73.28
76847;BME280;65813;49.546;8.644;2024-02-16T10:03:43;100595.50;;;13.22;73.10
76847;BME280;65813;49.546;8.644;2024-02-16T10:07:43;100606.91;;;13.46;71.77
76847;BME280;65813;49.546;8.644;2024-02-16T10:11:44;100612.38;;;13.76;72.70
76847;BME280;65813;49.546;8.644;2024-02-16T10:15:45;100582.69;;;13.79;70.41
76847;BME280;65813;49.546;8.644;2024-02-16T10:19:55;100624.69;;;14.31;69.96
76847;BME280;65813;49.546;8.644;2024-02-16T10:24:04;100617.66;;;14.51;69.37
76847;BME280;65813;49.546;8.644;2024-02-16T10:28:07;100630.13;;;14.82;67.99
76847;BME280;65813;49.546;8.644;2024-02-16T10:32:10;100628.09;;;14.75;67.64
76847;BME280;65813;49.546;8.644;2024-02-16T10:36:12;100607.75;;;15.02;67.04
76847;BME280;65813;49.546;8.644;2024-02-16T10:40:14;100620.44;;;15.40;67.36
76847;BME280;65813;49.546;8.644;2024-02-16T10:44:18;100632.50;;;15.55;65.61
76847;BME280;65813;49.546;8.644;2024-02-16T10:48:18;100637.25;;;15.82;66.22
76847;BME280;65813;49.546;8.644;2024-02-16T10:52:19;100632.22;;;15.49;66.16
76847;BME280;65813;49.546;8.644;2024-02-16T10:56:35;100631.28;;;15.20;67.36
76847;BME280;65813;49.546;8.644;2024-02-16T11:00:36;100632.03;;;15.01;67.25
76847;BME280;65813;49.546;8.644;2024-02-16T11:04:38;100636.78;;;15.28;67.74
76847;BME280;65813;49.546;8.644;2024-02-16T11:08:39;100620.22;;;15.53;66.91
76847;BME280;65813;49.546;8.644;2024-02-16T11:12:43;100618.56;;;15.71;64.74
76847;BME280;65813;49.546;8.644;2024-02-16T11:16:46;100631.31;;;16.27;64.70
76847;BME280;65813;49.546;8.644;2024-02-16T11:20:49;100597.78;;;16.31;63.76
76847;BME280;65813;49.546;8.644;2024-02-16T11:24:54;100629.00;;;16.70;62.99
76847;BME280;65813;49.546;8.644;2024-02-16T11:28:56;100631.72;;;16.97;63.46
76847;BME280;65813;49.546;8.644;2024-02-16T11:32:57;100603.53;;;17.29;61.68
76847;BME280;65813;49.546;8.644;2024-02-16T11:36:58;100629.53;;;17.92;61.42
76847;BME280;65813;49.546;8.644;2024-02-16T11:41:04;100623.66;;;17.25;61.30
76847;BME280;65813;49.546;8.644;2024-02-16T11:45:06;100612.66;;;17.18;62.44
76847;BME280;65813;49.546;8.644;2024-02-16T11:49:09;100624.25;;;16.91;64.46
76847;BME280;65813;49.546;8.644;2024-02-16T11:53:19;100622.72;;;16.79;62.31
76847;BME280;65813;49.546;8.644;2024-02-16T11:57:19;100620.47;;;17.39;60.69
76847;BME280;65813;49.546;8.644;2024-02-16T12:01:22;100590.91;;;17.02;61.60
76847;BME280;65813;49.546;8.644;2024-02-16T12:05:22;100605.41;;;16.91;62.56
76847;BME280;65813;49.546;8.644;2024-02-16T12:09:23;100591.56;;;17.13;62.32
76847;BME280;65813;49.546;8.644;2024-02-16T12:13:24;100622.44;;;17.19;61.61
76847;BME280;65813;49.546;8.644;2024-02-16T12:17:24;100614.91;;;17.23;62.54
76847;BME280;65813;49.546;8.644;2024-02-16T12:21:25;100601.75;;;16.83;62.82
76847;BME280;65813;49.546;8.644;2024-02-16T12:25:27;100606.53;;;17.26;63.18
76847;BME280;65813;49.546;8.644;2024-02-16T12:29:27;100600.78;;;17.11;62.49
76847;BME280;65813;49.546;8.644;2024-02-16T12:33:31;100605.06;;;17.31;62.96
76847;BME280;65813;49.546;8.644;2024-02-16T12:37:31;100611.31;;;17.32;61.66
76847;BME280;65813;49.546;8.644;2024-02-16T12:41:32;100623.38;;;17.28;60.36
76847;BME280;65813;49.546;8.644;2024-02-16T12:45:34;100620.47;;;17.39;62.09
76847;BME280;65813;49.546;8.644;2024-02-16T12:49:37;100616.19;;;17.46;60.93
76847;BME280;65813;49.546;8.644;2024-02-16T12:53:38;100593.66;;;17.20;60.73
76847;BME280;65813;49.546;8.644;2024-02-16T12:57:40;100623.59;;;17.16;61.86
76847;BME280;65813;49.546;8.644;2024-02-16T13:01:42;100611.59;;;17.01;62.43
76847;BME280;65813;49.546;8.644;2024-02-16T13:05:43;100595.88;;;16.97;63.12
76847;BME280;65813;49.546;8.644;2024-02-16T13:09:44;100607.97;;;16.83;63.31
76847;BME280;65813;49.546;8.644;2024-02-16T13:13:47;100606.84;;;17.23;63.87
76847;BME280;65813;49.546;8.644;2024-02-16T13:17:48;100601.72;;;17.47;63.29
76847;BME280;65813;49.546;8.644;2024-02-16T13:21:49;100606.72;;;17.14;63.10
76847;BME280;65813;49.546;8.644;2024-02-16T13:25:53;100631.63;;;16.89;64.22
76847;BME280;65813;49.546;8.644;2024-02-16T13:29:53;100628.59;;;16.55;65.26
76847;BME280;65813;49.546;8.644;2024-02-16T13:33:54;100633.22;;;16.82;64.43
76847;BME280;65813;49.546;8.644;2024-02-16T13:37:58;100635.72;;;16.93;65.44
76847;BME280;65813;49.546;8.644;2024-02-16T13:41:58;100629.63;;;16.91;64.84
76847;BME280;65813;49.546;8.644;2024-02-16T13:46:00;100630.88;;;16.97;65.44
76847;BME280;65813;49.546;8.644;2024-02-16T13:50:01;100618.53;;;16.67;65.02
76847;BME280;65813;49.546;8.644;2024-02-16T13:54:01;100635.34;;;16.69;66.18
76847;BME280;65813;49.546;8.644;2024-02-16T13:58:02;100638.47;;;16.55;67.08
76847;BME280;65813;49.546;8.644;2024-02-16T14:02:02;100653.91;;;16.53;66.93
76847;BME280;65813;49.546;8.644;2024-02-16T14:06:06;100646.44;;;16.28;67.94
76847;BME280;65813;49.546;8.644;2024-02-16T14:10:14;100639.78;;;16.22;68.92
76847;BME280;65813;49.546;8.644;2024-02-16T14:14:15;100657.34;;;16.16;69.42
76847;BME280;65813;49.546;8.644;2024-02-16T14:18:16;100653.38;;;16.01;69.01
76847;BME280;65813;49.546;8.644;2024-02-16T14:22:16;100671.31;;;16.01;69.52
76847;BME280;65813;49.546;8.644;2024-02-16T14:26:17;100667.22;;;15.87;70.30
76847;BME280;65813;49.546;8.644;2024-02-16T14:30:20;100675.00;;;15.90;70.30
76847;BME280;65813;49.546;8.644;2024-02-16T14:34:25;100691.38;;;15.78;72.03
76847;BME280;65813;49.546;8.644;2024-02-16T14:38:31;100698.00;;;15.74;72.38
76847;BME280;65813;49.546;8.644;2024-02-16T14:42:31;100671.94;;;15.55;73.13
76847;BME280;65813;49.546;8.644;2024-02-16T14:46:32;100709.00;;;15.61;72.96
76847;BME280;65813;49.546;8.644;2024-02-16T14:50:38;100717.41;;;15.47;74.20
76847;BME280;65813;49.546;8.644;2024-02-16T14:54:38;100723.53;;;15.28;77.04
76847;BME280;65813;49.546;8.644;2024-02-16T14:58:39;100729.75;;;14.98;78.72
76847;BME280;65813;49.546;8.644;2024-02-16T15:02:40;100721.09;;;14.95;79.86
76847;BME280;65813;49.546;8.644;2024-02-16T15:06:44;100720.06;;;14.65;83.29
76847;BME280;65813;49.546;8.644;2024-02-16T15:10:45;100746.28;;;14.62;85.92
76847;BME280;65813;49.546;8.644;2024-02-16T15:14:46;100746.13;;;14.43;87.18
76847;BME280;65813;49.546;8.644;2024-02-16T15:18:47;100754.78;;;14.46;88.91
76847;BME280;65813;49.546;8.644;2024-02-16T15:22:50;100738.09;;;14.32;87.96
76847;BME280;65813;49.546;8.644;2024-02-16T15:26:51;100758.09;;;14.28;89.13
76847;BME280;65813;49.546;8.644;2024-02-16T15:30:51;100743.97;;;14.26;89.49
76847;BME280;65813;49.546;8.644;2024-02-16T15:34:52;100772.22;;;14.30;90.20
76847;BME280;65813;49.546;8.644;2024-02-16T15:38:54;100748.66;;;14.12;89.55
76847;BME280;65813;49.546;8.644;2024-02-16T15:43:04;100770.44;;;14.19;89.36
76847;BME280;65813;49.546;8.644;2024-02-16T15:47:06;100742.22;;;13.93;91.10
76847;BME280;65813;49.546;8.644;2024-02-16T15:51:10;100769.94;;;14.14;91.12
76847;BME280;65813;49.546;8.644;2024-02-16T15:55:10;100773.50;;;14.03;92.79
76847;BME280;65813;49.546;8.644;2024-02-16T15:59:11;100797.25;;;14.08;93.62
76847;BME280;65813;49.546;8.644;2024-02-16T16:03:14;100803.22;;;14.00;94.99
76847;BME280;65813;49.546;8.644;2024-02-16T16:07:15;100810.44;;;13.89;95.16
76847;BME280;65813;49.546;8.644;2024-02-16T16:11:15;100824.91;;;13.86;96.91
76847;BME280;65813;49.546;8.644;2024-02-16T16:15:16;100811.16;;;13.80;97.31
76847;BME280;65813;49.546;8.644;2024-02-16T16:19:18;100813.22;;;13.87;97.00
76847;BME280;65813;49.546;8.644;2024-02-16T16:23:18;100791.44;;;13.58;99.56
76847;BME280;65813;49.546;8.644;2024-02-16T16:27:18;100821.03;;;13.57;100.00
76847;BME280;65813;49.546;8.644;2024-02-16T16:31:20;100827.09;;;13.48;100.00
76847;BME280;65813;49.546;8.644;2024-02-16T16:35:20;100843.00;;;13.38;100.00
76847;BME280;65813;49.546;8.644;2024-02-16T16:39:23;100839.00;;;13.33;100.00
76847;BME280;65813;49.546;8.644;2024-02-16T16:43:24;100851.66;;;13.31;100.00
76847;BME280;65813;49.546;8.644;2024-02-16T16:47:25;100844.31;;;13.22;100.00
76847;BME280;65813;49.546;8.644;2024-02-16T16:51:25;100837.31;;;13.08;100.00
76847;BME280;65813;49.546;8.644;2024-02-16T16:55:26;100867.28;;;13.13;100.00
76847;BME280;65813;49.546;8.644;2024-02-16T16:59:34;100867.69;;;13.07;100.00
76847;BME280;65813;49.546;8.644;2024-02-16T17:03:36;100872.16;;;12.95;100.00
76847;BME280;65813;49.546;8.644;2024-02-16T17:07:36;100867.91;;;12.93;100.00
76847;BME280;65813;49.546;8.644;2024-02-16T17:11:37;100889.69;;;12.99;100.00
76847;BME280;65813;49.546;8.644;2024-02-16T17:15:38;100900.44;;;12.87;100.00
76847;BME280;65813;49.546;8.644;2024-02-16T17:19:38;100905.94;;;12.73;100.00
76847;BME280;65813;49.546;8.644;2024-02-16T17:23:38;100908.53;;;12.74;100.00
76847;BME280;65813;49.546;8.644;2024-02-16T17:27:40;100906.53;;;12.65;100.00
76847;BME280;65813;49.546;8.644;2024-02-16T17:31:40;100903.34;;;12.60;100.00
76847;BME280;65813;49.546;8.644;2024-02-16T17:35:41;100905.22;;;12.47;100.00
76847;BME280;65813;49.546;8.644;2024-02-16T17:39:42;100932.50;;;12.63;100.00
76847;BME280;65813;49.546;8.644;2024-02-16T17:43:43;100924.09;;;12.56;100.00
76847;BME280;65813;49.546;8.644;2024-02-16T17:47:48;100927.84;;;12.54;100.00
76847;BME280;65813;49.546;8.644;2024-02-16T17:51:48;100915.56;;;12.51;100.00
76847;BME280;65813;49.546;8.644;2024-02-16T17:55:48;100925.81;;;12.57;100.00
76847;BME280;65813;49.546;8.644;2024-02-16T17:59:49;100938.00;;;12.49;100.00
76847;BME280;65813;49.546;8.644;2024-02-16T18:03:49;100943.25;;;12.38;100.00
76847;BME280;65813;49.546;8.644;2024-02-16T18:07:50;100959.50;;;12.35;100.00
76847;BME280;65813;49.546;8.644;2024-02-16T18:11:51;100926.53;;;12.10;100.00
76847;BME280;65813;49.546;8.644;2024-02-16T18:15:52;100972.59;;;12.27;100.00
76847;BME280;65813;49.546;8.644;2024-02-16T18:19:55;100958.91;;;12.19;100.00
76847;BME280;65813;49.546;8.644;2024-02-16T18:23:56;100953.47;;;12.07;100.00
76847;BME280;65813;49.546;8.644;2024-02-16T18:27:57;100949.19;;;12.05;100.00
76847;BME280;65813;49.546;8.644;2024-02-16T18:31:57;100951.44;;;11.98;100.00
76847;BME280;65813;49.546;8.644;2024-02-16T18:35:58;100947.72;;;11.88;100.00
76847;BME280;65813;49.546;8.644;2024-02-16T18:39:58;100974.53;;;11.99;100.00
76847;BME280;65813;49.546;8.644;2024-02-16T18:43:58;100991.63;;;12.09;100.00
76847;BME280;65813;49.546;8.644;2024-02-16T18:47:59;100970.16;;;11.86;100.00
76847;BME280;65813;49.546;8.644;2024-02-16T18:51:59;100981.47;;;11.89;100.00
76847;BME280;65813;49.546;8.644;2024-02-16T18:56:00;101003.03;;;11.99;100.00
76847;BME280;65813;49.546;8.644;2024-02-16T19:00:02;100989.16;;;11.94;100.00
76847;BME280;65813;49.546;8.644;2024-02-16T19:04:05;100986.03;;;11.87;100.00
76847;BME280;65813;49.546;8.644;2024-02-16T19:08:06;101003.22;;;11.83;100.00
76847;BME280;65813;49.546;8.644;2024-02-16T19:12:07;101029.63;;;11.88;100.00
76847;BME280;65813;49.546;8.644;2024-02-16T19:16:07;100992.97;;;11.77;100.00
76847;BME280;65813;49.546;8.644;2024-02-16T19:20:09;100997.88;;;11.71;100.00
76847;BME280;65813;49.546;8.644;2024-02-16T19:24:09;101016.50;;;11.85;100.00
76847;BME280;65813;49.546;8.644;2024-02-16T19:28:10;101021.00;;;11.70;100.00
76847;BME280;65813;49.546;8.644;2024-02-16T19:32:10;101040.09;;;11.91;100.00
76847;BME280;65813;49.546;8.644;2024-02-16T19:36:10;101036.13;;;11.84;100.00
76847;BME280;65813;49.546;8.644;2024-02-16T19:40:11;101012.34;;;11.66;100.00
76847;BME280;65813;49.546;8.644;2024-02-16T19:44:12;101047.00;;;11.81;100.00
76847;BME280;65813;49.546;8.644;2024-02-16T19:48:13;101041.28;;;11.60;100.00
76847;BME280;65813;49.546;8.644;2024-02-16T19:52:13;101028.03;;;11.58;100.00
76847;BME280;65813;49.546;8.644;2024-02-16T19:56:18;101032.38;;;11.47;100.00
76847;BME280;65813;49.546;8.644;2024-02-16T20:00:20;101042.66;;;11.53;100.00
76847;BME280;65813;49.546;8.644;2024-02-16T20:04:20;101034.09;;;11.48;100.00
76847;BME280;65813;49.546;8.644;2024-02-16T20:08:20;101057.06;;;11.50;100.00
76847;BME280;65813;49.546;8.644;2024-02-16T20:12:21;101065.50;;;11.57;100.00
76847;BME280;65813;49.546;8.644;2024-02-16T20:16:24;101051.81;;;11.49;100.00
76847;BME280;65813;49.546;8.644;2024-02-16T20:20:24;101035.75;;;11.36;100.00
76847;BME280;65813;49.546;8.644;2024-02-16T20:24:24;101054.78;;;11.44;100.00
76847;BME280;65813;49.546;8.644;2024-02-16T20:28:25;101077.25;;;11.54;100.00
76847;BME280;65813;49.546;8.644;2024-02-16T20:32:25;101084.84;;;11.60;100.00
76847;BME280;65813;49.546;8.644;2024-02-16T20:36:26;101091.56;;;11.66;100.00
76847;BME280;65813;49.546;8.644;2024-02-16T20:40:26;101099.56;;;11.66;100.00
76847;BME280;65813;49.546;8.644;2024-02-16T20:44:27;101075.06;;;11.47;100.00
76847;BME280;65813;49.546;8.644;2024-02-16T20:48:27;101094.50;;;11.49;100.00
76847;BME280;65813;49.546;8.644;2024-02-16T20:52:27;101104.97;;;11.52;100.00
76847;BME280;65813;49.546;8.644;2024-02-16T20:56:28;101117.91;;;11.58;100.00
76847;BME280;65813;49.546;8.644;2024-02-16T21:00:29;101076.88;;;11.20;100.00
76847;BME280;65813;49.546;8.644;2024-02-16T21:04:34;101106.84;;;11.37;100.00
76847;BME280;65813;49.546;8.644;2024-02-16T21:08:34;101094.84;;;11.30;100.00
76847;BME280;65813;49.546;8.644;2024-02-16T21:12:36;101107.50;;;11.41;100.00
76847;BME280;65813;49.546;8.644;2024-02-16T21:16:41;101117.50;;;11.37;100.00
76847;BME280;65813;49.546;8.644;2024-02-16T21:20:42;101115.34;;;11.30;100.00
76847;BME280;65813;49.546;8.644;2024-02-16T21:24:42;101133.78;;;11.47;100.00
76847;BME280;65813;49.546;8.644;2024-02-16T21:28:43;101126.66;;;11.33;100.00
76847;BME280;65813;49.546;8.644;2024-02-16T21:32:44;101147.31;;;11.44;100.00
76847;BME280;65813;49.546;8.644;2024-02-16T21:36:45;101154.16;;;11.48;100.00
76847;BME280;65813;49.546;8.644;2024-02-16T21:40:47;101154.81;;;11.51;100.00
76847;BME280;65813;49.546;8.644;2024-02-16T21:44:52;101151.53;;;11.34;100.00
76847;BME280;65813;49.546;8.644;2024-02-16T21:49:00;101155.53;;;11.41;100.00
76847;BME280;65813;49.546;8.644;2024-02-16T21:53:02;101149.81;;;11.33;100.00
76847;BME280;65813;49.546;8.644;2024-02-16T21:57:03;101149.31;;;11.40;100.00
76847;BME280;65813;49.546;8.644;2024-02-16T22:01:03;101144.66;;;11.30;100.00
76847;BME280;65813;49.546;8.644;2024-02-16T22:05:04;101158.00;;;11.30;100.00
76847;BME280;65813;49.546;8.644;2024-02-16T22:09:05;101159.72;;;11.31;100.00
76847;BME280;65813;49.546;8.644;2024-02-16T22:13:05;101195.00;;;11.48;100.00
76847;BME280;65813;49.546;8.644;2024-02-16T22:17:05;101163.25;;;11.17;100.00
76847;BME280;65813;49.546;8.644;2024-02-16T22:21:09;101152.28;;;11.22;100.00
76847;BME280;65813;49.546;8.644;2024-02-16T22:25:10;101175.06;;;11.27;100.00
76847;BME280;65813;49.546;8.644;2024-02-16T22:29:10;101200.38;;;11.34;100.00
76847;BME280;65813;49.546;8.644;2024-02-16T22:33:10;101211.88;;;11.49;100.00
76847;BME280;65813;49.546;8.644;2024-02-16T22:37:11;101191.44;;;11.21;100.00
76847;BME280;65813;49.546;8.644;2024-02-16T22:41:11;101229.25;;;11.42;100.00
